Terminal Aerodrome Forecast
Issued by NWS

Current Version | Previous Version | Graphics & Text | Print | Product List | Glossary On
Versions: 1 2 3 4 5 6 7 8 9 10 11 12 13 14 15 16 17
000
FTUS41 KPBZ 272100 AAA
TAFHLG
TAF AMD
KHLG 272141Z 2722/2818 29007KT P6SM SCT025 BKN040
      TEMPO 2722/2723 2SM -TSRA BKN025CB
     FM280100 33005KT P6SM SCT030=

USA.gov is the U.S. government's official web portal to all federal, state and local government web resources and services.